Time;durP1;ratioP1;P1;durP2;ratioP2;P2;SDS_P1;SDS_P2;PMS_P1;PMS_P2;Temp;Humidity;BMP_temperature;BMP_pressure;BME280_temperature;BME280_humidity;BME280_pressure;Samples;Min_cycle;Max_cycle;Signal;HPM_P1;HPM_P2
2022/04/08 00:00:58;;;;;;;8.15;5.47;;;22.40;39.40;;;;;;4993983;28;20056;-61
2022/04/08 00:03:27;;;;;;;7.60;5.50;;;22.40;39.40;;;;;;4989180;28;20030;-61
2022/04/08 00:05:54;;;;;;;7.50;5.40;;;22.40;39.40;;;;;;4997177;28;20117;-61
2022/04/08 00:08:20;;;;;;;8.20;5.20;;;22.40;39.40;;;;;;4998608;28;20501;-61
2022/04/08 00:10:46;;;;;;;8.65;5.47;;;22.30;39.40;;;;;;4997602;28;20487;-61
2022/04/08 00:13:11;;;;;;;7.53;4.90;;;22.30;39.40;;;;;;4997743;28;20104;-61
2022/04/08 00:15:38;;;;;;;6.72;4.65;;;22.30;39.50;;;;;;4996529;28;20449;-60
2022/04/08 00:18:04;;;;;;;7.70;5.25;;;22.30;39.50;;;;;;4994174;28;20022;-61
2022/04/08 00:20:32;;;;;;;8.43;5.20;;;22.30;39.50;;;;;;4997558;28;20132;-60
2022/04/08 00:22:58;;;;;;;6.70;4.45;;;22.30;39.50;;;;;;4997203;28;20029;-62
2022/04/08 00:25:24;;;;;;;6.97;4.80;;;22.30;39.60;;;;;;4996854;28;20038;-60
2022/04/08 00:27:50;;;;;;;6.47;4.40;;;22.20;39.60;;;;;;4997127;28;20032;-63
2022/04/08 00:30:15;;;;;;;8.07;4.55;;;22.30;39.60;;;;;;4996351;28;20026;-60
2022/04/08 00:32:41;;;;;;;6.38;4.53;;;22.20;39.60;;;;;;4995914;28;20037;-61
2022/04/08 00:35:08;;;;;;;6.13;4.40;;;22.20;39.60;;;;;;4994777;28;20030;-61
2022/04/08 00:37:34;;;;;;;6.53;4.60;;;22.20;39.70;;;;;;4997465;28;20042;-60
2022/04/08 00:40:00;;;;;;;6.15;4.22;;;22.20;39.70;;;;;;4996672;28;20464;-63
2022/04/08 00:42:25;;;;;;;6.63;4.40;;;22.20;39.70;;;;;;4996872;28;20121;-61
2022/04/08 00:44:51;;;;;;;6.13;3.83;;;22.20;39.80;;;;;;4996710;28;20423;-61
2022/04/08 00:47:16;;;;;;;6.00;4.15;;;22.20;39.70;;;;;;4996748;28;20037;-62
2022/04/08 00:49:43;;;;;;;6.45;4.30;;;22.10;39.80;;;;;;4995560;28;20068;-60
2022/04/08 00:52:09;;;;;;;6.07;3.95;;;22.10;39.80;;;;;;4996602;28;20037;-61
2022/04/08 00:54:37;;;;;;;4.65;3.47;;;22.10;39.80;;;;;;4994939;28;20036;-61
2022/04/08 00:57:04;;;;;;;4.90;3.45;;;22.10;39.80;;;;;;4994976;28;20029;-63
2022/04/08 00:59:30;;;;;;;6.10;3.90;;;22.10;39.80;;;;;;4994999;28;20022;-61
2022/04/08 01:01:58;;;;;;;5.28;3.50;;;22.10;39.80;;;;;;4992053;28;20117;-63
2022/04/08 01:04:27;;;;;;;5.20;3.40;;;22.00;39.80;;;;;;4995753;28;20037;-61
2022/04/08 01:06:53;;;;;;;5.10;3.20;;;22.00;39.80;;;;;;4994045;28;20116;-63
2022/04/08 01:09:19;;;;;;;4.68;2.90;;;22.00;39.80;;;;;;4993721;28;20026;-61
2022/04/08 01:11:44;;;;;;;4.93;3.00;;;22.00;39.80;;;;;;4995297;28;20044;-59
2022/04/08 01:14:12;;;;;;;4.75;3.10;;;22.00;39.90;;;;;;4996267;28;20109;-61
2022/04/08 01:16:37;;;;;;;5.05;3.03;;;22.00;39.90;;;;;;4992729;28;20123;-62
2022/04/08 01:19:04;;;;;;;4.78;2.80;;;22.00;39.90;;;;;;4995319;28;20060;-63
2022/04/08 01:21:31;;;;;;;4.47;3.00;;;22.00;39.90;;;;;;4993357;28;20038;-61
2022/04/08 01:23:58;;;;;;;4.40;2.65;;;21.90;39.90;;;;;;4993892;28;20081;-60
2022/04/08 01:26:23;;;;;;;4.15;2.70;;;21.90;39.90;;;;;;4994230;28;20042;-61
2022/04/08 01:28:50;;;;;;;4.55;2.75;;;21.90;39.90;;;;;;4994702;28;20099;-63
2022/04/08 01:31:16;;;;;;;4.57;2.97;;;21.90;39.90;;;;;;4993775;28;20277;-63
2022/04/08 01:33:41;;;;;;;4.85;2.85;;;21.90;39.90;;;;;;4992108;28;20357;-60
2022/04/08 01:36:07;;;;;;;4.22;2.60;;;21.90;39.90;;;;;;4994561;28;20117;-62
2022/04/08 01:38:33;;;;;;;3.58;2.38;;;21.90;39.90;;;;;;4990876;28;20073;-62
2022/04/08 01:40:59;;;;;;;4.43;2.30;;;21.90;39.90;;;;;;4992968;28;20224;-61
2022/04/08 01:43:24;;;;;;;3.80;2.35;;;21.90;39.90;;;;;;4992038;28;20192;-63
2022/04/08 01:45:50;;;;;;;3.92;2.20;;;21.80;39.90;;;;;;4993748;28;20647;-60
2022/04/08 01:48:16;;;;;;;3.88;2.10;;;21.80;40.00;;;;;;4992878;28;20029;-59
2022/04/08 01:50:41;;;;;;;3.13;2.03;;;21.80;39.90;;;;;;4995345;28;20346;-61
2022/04/08 01:53:07;;;;;;;3.47;2.03;;;21.80;39.90;;;;;;4993116;28;20029;-59
2022/04/08 01:55:33;;;;;;;4.35;2.28;;;21.80;40.00;;;;;;4996205;28;20371;-61
2022/04/08 01:57:58;;;;;;;3.65;2.20;;;21.80;40.00;;;;;;4994026;28;20026;-63
2022/04/08 02:00:24;;;;;;;3.53;2.03;;;21.80;40.00;;;;;;4991943;28;20040;-59
2022/04/08 02:02:50;;;;;;;3.83;2.20;;;21.80;40.00;;;;;;4991550;28;20025;-60
2022/04/08 02:05:15;;;;;;;4.07;2.20;;;21.80;40.00;;;;;;4993875;28;20033;-63
2022/04/08 02:07:41;;;;;;;3.67;2.25;;;21.80;40.00;;;;;;4995521;28;20398;-59
2022/04/08 02:10:07;;;;;;;2.95;1.88;;;21.70;39.90;;;;;;4995117;28;20025;-63
2022/04/08 02:12:33;;;;;;;3.40;1.92;;;21.80;40.00;;;;;;4994445;28;20037;-59
2022/04/08 02:14:59;;;;;;;3.17;1.90;;;21.70;40.00;;;;;;4994207;28;20052;-60
2022/04/08 02:17:25;;;;;;;2.95;2.00;;;21.70;40.00;;;;;;4990572;28;20589;-59
2022/04/08 02:19:54;;;;;;;2.95;1.75;;;21.70;40.10;;;;;;4994117;28;20132;-61
2022/04/08 02:22:21;;;;;;;3.58;1.85;;;21.70;40.10;;;;;;4992784;28;20081;-62
2022/04/08 02:24:49;;;;;;;3.35;1.75;;;21.70;40.10;;;;;;4993519;28;20065;-61
2022/04/08 02:27:14;;;;;;;3.05;1.70;;;21.70;40.10;;;;;;4995311;28;20128;-61
2022/04/08 02:29:40;;;;;;;2.70;1.77;;;21.70;40.10;;;;;;4995098;28;20466;-60
2022/04/08 02:32:06;;;;;;;3.78;2.10;;;21.70;40.20;;;;;;4989650;28;20042;-61
2022/04/08 02:34:36;;;;;;;3.15;1.95;;;21.70;40.20;;;;;;4992568;28;20109;-59
2022/04/08 02:37:03;;;;;;;2.70;1.60;;;21.60;40.20;;;;;;4992564;28;20116;-61
2022/04/08 02:39:28;;;;;;;3.10;1.60;;;21.60;40.20;;;;;;4993268;28;20335;-60
2022/04/08 02:41:54;;;;;;;2.95;1.70;;;21.60;40.20;;;;;;4994256;28;20034;-59
2022/04/08 02:44:20;;;;;;;3.05;1.80;;;21.60;40.20;;;;;;4993711;28;20217;-59
2022/04/08 02:46:45;;;;;;;2.45;1.67;;;21.60;40.30;;;;;;4992572;28;20545;-61
2022/04/08 02:49:11;;;;;;;2.35;1.42;;;21.60;40.30;;;;;;4992494;28;20097;-63
2022/04/08 02:51:36;;;;;;;2.67;1.50;;;21.60;40.30;;;;;;4994116;28;20039;-63
2022/04/08 02:54:02;;;;;;;3.13;1.40;;;21.60;40.30;;;;;;4992855;28;20483;-60
2022/04/08 02:56:28;;;;;;;2.53;1.50;;;21.60;40.30;;;;;;4992795;28;20034;-59
2022/04/08 02:58:54;;;;;;;2.45;1.30;;;21.60;40.30;;;;;;4994986;28;20032;-63
2022/04/08 03:01:20;;;;;;;2.70;1.50;;;21.60;40.30;;;;;;4993708;28;20561;-61
2022/04/08 03:03:46;;;;;;;3.03;1.80;;;21.60;40.30;;;;;;4990967;28;20026;-59
2022/04/08 03:06:11;;;;;;;2.25;1.50;;;21.60;40.30;;;;;;4994113;28;20034;-60
2022/04/08 03:08:37;;;;;;;2.92;1.60;;;21.50;40.30;;;;;;4994280;28;20018;-61
2022/04/08 03:11:03;;;;;;;3.00;1.50;;;21.50;40.30;;;;;;4993737;28;20632;-60
2022/04/08 03:13:28;;;;;;;2.33;1.42;;;21.50;40.40;;;;;;4993479;28;20049;-60
2022/04/08 03:15:54;;;;;;;2.85;1.70;;;21.50;40.40;;;;;;4993173;28;20105;-60
2022/04/08 03:18:19;;;;;;;2.15;1.30;;;21.50;40.40;;;;;;4991959;28;20060;-60
2022/04/08 03:20:45;;;;;;;2.38;1.30;;;21.50;40.40;;;;;;4992912;28;20029;-58
2022/04/08 03:23:11;;;;;;;2.97;1.50;;;21.50;40.40;;;;;;4992463;28;20046;-61
2022/04/08 03:25:36;;;;;;;2.00;1.20;;;21.50;40.40;;;;;;4993515;28;20029;-61
2022/04/08 03:28:02;;;;;;;2.53;1.30;;;21.50;40.40;;;;;;4992321;28;20022;-61
2022/04/08 03:30:28;;;;;;;2.60;1.40;;;21.50;40.40;;;;;;4993545;28;20733;-62
2022/04/08 03:32:54;;;;;;;2.53;1.50;;;21.50;40.40;;;;;;4989880;28;20112;-61
2022/04/08 03:35:20;;;;;;;2.45;1.40;;;21.50;40.50;;;;;;4990727;28;20474;-59
2022/04/08 03:37:46;;;;;;;2.58;1.50;;;21.50;40.50;;;;;;4992968;28;20121;-62
2022/04/08 03:40:12;;;;;;;1.90;1.20;;;21.40;40.50;;;;;;4990955;28;20120;-59
2022/04/08 03:42:38;;;;;;;1.90;1.30;;;21.40;40.50;;;;;;4991217;28;20129;-61
2022/04/08 03:45:05;;;;;;;2.03;1.35;;;21.40;40.50;;;;;;4991730;28;20160;-59
2022/04/08 03:47:30;;;;;;;2.28;1.30;;;21.40;40.40;;;;;;4992149;28;20113;-60
2022/04/08 03:49:57;;;;;;;2.35;1.30;;;21.40;40.50;;;;;;4992906;28;20085;-59
2022/04/08 03:52:23;;;;;;;2.05;1.33;;;21.40;40.50;;;;;;4993189;28;20497;-62
2022/04/08 03:54:49;;;;;;;1.75;1.20;;;21.40;40.50;;;;;;4993381;28;20129;-59
2022/04/08 03:57:14;;;;;;;1.95;1.20;;;21.40;40.50;;;;;;4993516;28;20482;-61
2022/04/08 03:59:41;;;;;;;2.47;1.30;;;21.40;40.50;;;;;;4992675;28;20037;-59
2022/04/08 04:02:07;;;;;;;1.92;1.27;;;21.40;40.50;;;;;;4984951;28;20049;-59
2022/04/08 04:04:34;;;;;;;2.03;1.20;;;21.40;40.50;;;;;;4992461;28;20038;-59
2022/04/08 04:07:00;;;;;;;2.05;1.20;;;21.40;40.50;;;;;;4990156;28;20096;-64
2022/04/08 04:09:26;;;;;;;1.90;1.17;;;21.40;40.50;;;;;;4995095;28;20192;-59
2022/04/08 04:11:52;;;;;;;2.17;1.38;;;21.40;41.00;;;;;;4993190;28;20073;-63
2022/04/08 04:14:17;;;;;;;2.10;1.20;;;21.40;40.50;;;;;;4991704;28;20119;-61
2022/04/08 04:16:43;;;;;;;2.03;1.10;;;21.40;40.60;;;;;;4990128;28;20550;-61
2022/04/08 04:19:09;;;;;;;1.73;1.00;;;21.30;40.50;;;;;;4991815;28;20083;-63
2022/04/08 04:21:34;;;;;;;1.55;1.10;;;21.30;40.50;;;;;;4990113;28;20087;-63
2022/04/08 04:24:00;;;;;;;2.13;1.20;;;21.30;40.50;;;;;;4992074;28;20056;-60
2022/04/08 04:26:26;;;;;;;1.38;1.00;;;21.40;40.60;;;;;;4991696;28;20087;-60
2022/04/08 04:28:51;;;;;;;1.65;1.10;;;21.30;40.50;;;;;;4992085;28;20036;-61
2022/04/08 04:31:17;;;;;;;2.30;1.10;;;21.30;40.50;;;;;;4991299;28;20046;-63
2022/04/08 04:33:42;;;;;;;1.70;1.10;;;21.30;40.60;;;;;;4989100;28;20600;-59
2022/04/08 04:36:08;;;;;;;2.22;1.40;;;21.30;40.60;;;;;;4990347;28;20045;-59
2022/04/08 04:38:33;;;;;;;2.15;1.15;;;21.30;40.60;;;;;;4989953;28;20083;-60
2022/04/08 04:40:59;;;;;;;2.00;1.13;;;21.30;40.40;;;;;;4991792;28;20196;-63
2022/04/08 04:43:25;;;;;;;2.08;1.13;;;21.30;39.90;;;;;;4992664;28;20041;-61
2022/04/08 04:45:50;;;;;;;2.28;1.20;;;21.20;39.60;;;;;;4989225;28;20347;-59
2022/04/08 04:48:17;;;;;;;2.22;1.10;;;21.20;39.40;;;;;;4992889;28;20382;-63
2022/04/08 04:50:42;;;;;;;1.77;1.00;;;21.20;39.20;;;;;;4994857;28;20030;-63
2022/04/08 04:53:08;;;;;;;2.60;1.00;;;21.20;39.10;;;;;;4996000;28;20355;-60
2022/04/08 04:55:34;;;;;;;1.88;1.00;;;21.20;39.00;;;;;;4996656;28;20087;-62
2022/04/08 04:57:59;;;;;;;2.08;0.93;;;21.20;38.90;;;;;;4993998;28;20037;-60
2022/04/08 05:00:25;;;;;;;1.73;0.98;;;21.20;38.80;;;;;;4991218;28;20121;-60
2022/04/08 05:02:51;;;;;;;2.42;0.93;;;21.20;38.70;;;;;;4993753;28;20030;-62
2022/04/08 05:05:17;;;;;;;1.88;1.00;;;21.20;38.60;;;;;;4996368;28;20125;-59
2022/04/08 05:07:43;;;;;;;2.53;1.00;;;21.20;38.50;;;;;;4991792;28;20472;-62
2022/04/08 05:10:09;;;;;;;1.92;1.00;;;21.10;38.40;;;;;;4993637;28;20040;-63
2022/04/08 05:12:37;;;;;;;1.95;0.90;;;21.10;38.30;;;;;;4994867;28;20026;-59
2022/04/08 05:15:09;;;;;;;1.15;0.80;;;21.10;38.40;;;;;;4995260;28;20552;-63
2022/04/08 05:17:36;;;;;;;2.20;0.90;;;21.10;38.30;;;;;;4992291;28;20038;-59
2022/04/08 05:20:02;;;;;;;1.63;1.00;;;21.10;38.40;;;;;;4991146;28;20134;-63
2022/04/08 05:22:28;;;;;;;1.52;0.90;;;21.10;38.30;;;;;;4992986;28;20037;-63
2022/04/08 05:24:54;;;;;;;1.67;0.98;;;21.10;38.30;;;;;;4994596;28;20362;-61
2022/04/08 05:27:19;;;;;;;2.08;0.85;;;21.00;38.10;;;;;;4991404;28;20030;-59
2022/04/08 05:29:45;;;;;;;2.08;0.82;;;21.00;38.10;;;;;;4992505;28;20030;-61
2022/04/08 05:32:10;;;;;;;1.33;0.80;;;21.00;38.10;;;;;;4989113;28;20041;-59
2022/04/08 05:34:36;;;;;;;1.80;0.90;;;21.00;38.20;;;;;;4994399;28;20540;-60
2022/04/08 05:37:02;;;;;;;2.28;0.90;;;21.00;38.20;;;;;;4989956;28;20034;-61
2022/04/08 05:39:27;;;;;;;2.13;0.98;;;21.00;38.30;;;;;;4992010;28;20175;-62
2022/04/08 05:41:53;;;;;;;1.40;0.77;;;21.00;38.40;;;;;;4984582;28;20034;-60
2022/04/08 05:44:18;;;;;;;1.23;0.80;;;21.00;38.50;;;;;;4985097;28;20137;-63
2022/04/08 05:46:44;;;;;;;1.10;0.70;;;21.00;38.50;;;;;;4992280;28;20104;-59
2022/04/08 05:49:09;;;;;;;1.55;0.70;;;21.00;38.60;;;;;;4988393;28;20022;-59
2022/04/08 05:51:35;;;;;;;1.60;0.90;;;21.00;38.60;;;;;;4992133;28;20601;-62
2022/04/08 05:54:01;;;;;;;1.73;0.88;;;21.00;38.70;;;;;;4988940;28;20139;-59
2022/04/08 05:56:26;;;;;;;1.45;0.70;;;21.00;38.90;;;;;;4991603;28;20045;-56
2022/04/08 05:58:52;;;;;;;1.27;0.80;;;21.00;40.30;;;;;;5006661;28;20125;-60
2022/04/08 06:01:17;;;;;;;0.93;0.70;;;21.20;40.40;;;;;;5007065;28;20096;-60
2022/04/08 06:03:43;;;;;;;2.53;1.10;;;21.40;40.30;;;;;;5014386;28;20058;-60
2022/04/08 06:06:08;;;;;;;2.00;0.90;;;21.60;40.20;;;;;;5008415;28;20045;-62
2022/04/08 06:08:34;;;;;;;1.45;0.80;;;21.80;39.90;;;;;;5006394;28;20065;-60
2022/04/08 06:11:00;;;;;;;1.20;0.80;;;21.90;39.90;;;;;;5006987;28;20585;-61
2022/04/08 06:13:26;;;;;;;1.42;0.80;;;22.00;39.70;;;;;;5000015;28;20080;-62
2022/04/08 06:16:04;;;;;;;1.15;0.80;;;22.10;39.60;;;;;;5000760;28;20029;-61
2022/04/08 06:18:29;;;;;;;2.10;1.00;;;22.30;39.60;;;;;;5002469;28;20084;-62
2022/04/08 06:20:55;;;;;;;1.92;1.00;;;22.40;39.40;;;;;;5007225;28;20033;-62
2022/04/08 06:23:21;;;;;;;1.10;0.70;;;22.50;39.20;;;;;;5001597;28;20045;-61
2022/04/08 06:25:48;;;;;;;1.02;0.70;;;22.50;38.60;;;;;;4994650;28;20104;-58
2022/04/08 06:28:13;;;;;;;1.30;0.57;;;22.40;38.60;;;;;;5003313;28;20146;-60
2022/04/08 06:30:40;;;;;;;0.90;0.60;;;22.40;38.60;;;;;;4998148;28;20068;-60
2022/04/08 06:33:06;;;;;;;1.10;0.70;;;22.30;38.60;;;;;;4991634;28;20065;-61
2022/04/08 06:35:32;;;;;;;1.23;0.68;;;22.30;38.60;;;;;;4997907;28;20034;-60
2022/04/08 06:38:03;;;;;;;0.63;0.50;;;22.30;38.60;;;;;;4994203;28;20052;-60
2022/04/08 06:40:28;;;;;;;1.13;0.68;;;22.30;38.60;;;;;;4994767;28;20435;-61
2022/04/08 06:42:57;;;;;;;0.82;0.63;;;22.30;38.60;;;;;;4992621;28;20029;-58
2022/04/08 06:45:23;;;;;;;1.00;0.70;;;22.30;38.60;;;;;;4982791;28;20037;-60
2022/04/08 06:47:49;;;;;;;1.25;0.70;;;22.30;38.60;;;;;;4986737;28;20299;-60
2022/04/08 06:50:16;;;;;;;0.63;0.50;;;22.30;38.50;;;;;;4989028;28;21556;-60
2022/04/08 06:52:41;;;;;;;0.60;0.47;;;22.40;38.60;;;;;;4990185;28;20102;-62
2022/04/08 06:55:08;;;;;;;0.88;0.55;;;22.40;38.60;;;;;;4988816;28;20503;-60
2022/04/08 06:57:34;;;;;;;0.77;0.60;;;22.40;38.60;;;;;;4980901;28;20122;-61
2022/04/08 07:00:00;;;;;;;1.58;0.77;;;22.40;38.60;;;;;;4980181;28;20184;-60
2022/04/08 07:02:25;;;;;;;0.82;0.52;;;22.40;38.60;;;;;;4978269;28;20043;-60
2022/04/08 07:04:51;;;;;;;1.17;0.65;;;22.40;38.60;;;;;;4984845;28;20035;-60
2022/04/08 07:07:17;;;;;;;1.00;0.50;;;22.50;38.70;;;;;;4988718;28;20101;-61
2022/04/08 07:09:42;;;;;;;1.20;0.60;;;22.50;38.80;;;;;;4982797;28;20026;-59
2022/04/08 07:12:08;;;;;;;0.95;0.60;;;22.50;38.60;;;;;;4977252;28;20037;-59
2022/04/08 07:14:34;;;;;;;0.90;0.50;;;22.50;38.70;;;;;;4981821;28;20068;-60
2022/04/08 07:16:59;;;;;;;1.33;0.70;;;22.50;38.90;;;;;;4979341;28;20030;-63
2022/04/08 07:19:25;;;;;;;0.68;0.50;;;22.60;38.80;;;;;;4987905;28;20038;-63
2022/04/08 07:21:50;;;;;;;0.98;0.60;;;22.60;39.30;;;;;;4981144;28;20037;-61
2022/04/08 07:24:16;;;;;;;1.48;0.60;;;22.60;38.80;;;;;;4985126;28;21429;-62
2022/04/08 07:26:42;;;;;;;0.70;0.50;;;22.60;39.10;;;;;;4985067;28;20030;-60
2022/04/08 07:29:08;;;;;;;1.35;0.60;;;22.60;39.40;;;;;;4987212;28;21496;-61
2022/04/08 07:31:34;;;;;;;0.88;0.63;;;22.70;39.00;;;;;;4985905;28;20038;-61
2022/04/08 07:34:00;;;;;;;1.38;0.70;;;22.70;38.90;;;;;;4987286;28;20038;-60
2022/04/08 07:36:26;;;;;;;1.02;0.60;;;22.70;39.50;;;;;;4988479;28;20083;-62
2022/04/08 07:38:53;;;;;;;1.30;0.60;;;22.80;39.00;;;;;;4986702;28;20038;-61
2022/04/08 07:41:18;;;;;;;1.02;0.70;;;22.80;38.80;;;;;;4987899;28;20152;-61
2022/04/08 07:43:44;;;;;;;0.70;0.60;;;22.80;38.70;;;;;;4987111;28;20049;-61
2022/04/08 07:46:09;;;;;;;0.85;0.50;;;22.80;39.20;;;;;;4988375;28;20041;-62
2022/04/08 07:48:35;;;;;;;1.27;0.70;;;22.80;39.50;;;;;;4986237;28;20100;-61
2022/04/08 07:51:01;;;;;;;0.77;0.60;;;22.90;39.20;;;;;;4988684;28;20030;-63
2022/04/08 07:53:26;;;;;;;1.00;0.60;;;22.90;39.10;;;;;;4991634;28;20621;-60
2022/04/08 07:55:52;;;;;;;0.47;0.40;;;22.90;39.00;;;;;;4988689;28;20060;-61
2022/04/08 07:58:18;;;;;;;0.70;0.50;;;22.90;38.70;;;;;;4988890;28;20443;-64
2022/04/08 08:00:43;;;;;;;1.17;0.70;;;22.90;38.80;;;;;;4990458;28;20057;-62
2022/04/08 08:03:09;;;;;;;0.60;0.55;;;22.90;38.90;;;;;;4990414;28;20045;-62
2022/04/08 08:05:34;;;;;;;0.65;0.60;;;23.00;39.20;;;;;;4987796;28;20125;-60
2022/04/08 08:08:01;;;;;;;0.77;0.50;;;23.00;38.70;;;;;;4989979;28;20065;-62
2022/04/08 08:10:39;;;;;;;0.68;0.50;;;23.00;38.80;;;;;;4987347;28;20241;-63
2022/04/08 08:13:05;;;;;;;1.00;0.52;;;23.00;38.80;;;;;;4987670;28;20565;-61
2022/04/08 08:15:31;;;;;;;0.40;0.40;;;23.00;38.80;;;;;;4990114;28;20393;-61
2022/04/08 08:17:57;;;;;;;1.58;0.60;;;23.00;38.60;;;;;;4986369;28;20025;-62
2022/04/08 08:20:23;;;;;;;1.45;0.80;;;23.00;39.10;;;;;;4986406;28;20517;-62
2022/04/08 08:22:50;;;;;;;0.63;0.52;;;23.00;38.60;;;;;;4992948;28;20065;-63
2022/04/08 08:25:16;;;;;;;0.70;0.52;;;23.00;38.60;;;;;;4993292;28;20164;-62
2022/04/08 08:27:45;;;;;;;0.63;0.60;;;23.10;39.20;;;;;;4991470;28;20437;-65
2022/04/08 08:30:13;;;;;;;1.10;0.70;;;23.10;39.30;;;;;;4992696;28;20088;-61
2022/04/08 08:32:40;;;;;;;0.80;0.60;;;23.10;39.00;;;;;;4991719;28;20049;-60
2022/04/08 08:35:08;;;;;;;0.57;0.50;;;23.10;39.00;;;;;;4992943;28;20076;-63
2022/04/08 08:37:34;;;;;;;0.77;0.60;;;23.10;38.80;;;;;;4992703;28;20034;-61
2022/04/08 08:40:00;;;;;;;0.95;0.60;;;23.20;38.90;;;;;;4994757;28;20026;-64
2022/04/08 08:42:26;;;;;;;0.55;0.55;;;23.20;38.80;;;;;;4990196;28;20045;-61
2022/04/08 08:44:52;;;;;;;1.50;0.60;;;23.20;39.10;;;;;;4992361;28;20044;-62
2022/04/08 08:47:18;;;;;;;0.60;0.60;;;23.20;39.20;;;;;;4991490;28;20676;-63
2022/04/08 08:49:50;;;;;;;0.70;0.60;;;23.20;38.80;;;;;;4991461;28;20026;-61
2022/04/08 08:52:19;;;;;;;0.90;0.50;;;23.20;38.80;;;;;;4993183;28;20045;-63
2022/04/08 08:54:46;;;;;;;0.63;0.60;;;23.20;38.50;;;;;;4994358;28;20485;-61
2022/04/08 08:57:14;;;;;;;0.40;0.40;;;23.20;38.60;;;;;;4992912;28;20145;-62
2022/04/08 08:59:39;;;;;;;1.20;0.65;;;23.20;38.50;;;;;;4989136;28;20042;-64
2022/04/08 09:02:05;;;;;;;1.00;0.60;;;23.20;38.40;;;;;;4990273;28;20374;-64
2022/04/08 09:04:31;;;;;;;1.13;0.50;;;23.20;38.30;;;;;;4994752;28;20447;-63
2022/04/08 09:06:57;;;;;;;0.98;0.60;;;23.20;38.30;;;;;;4989990;28;20044;-62
2022/04/08 09:09:32;;;;;;;2.13;0.70;;;23.20;38.20;;;;;;4992339;28;20034;-64
2022/04/08 09:12:15;;;;;;;1.45;0.80;;;23.20;38.10;;;;;;4993245;28;20014;-63
2022/04/08 09:14:49;;;;;;;1.67;1.00;;;23.20;37.80;;;;;;4988708;28;20026;-62
2022/04/08 09:17:19;;;;;;;1.02;0.70;;;23.30;37.80;;;;;;4992903;28;20030;-63
2022/04/08 09:19:49;;;;;;;2.33;0.80;;;23.20;37.70;;;;;;4992635;28;20539;-61
2022/04/08 09:22:16;;;;;;;1.92;0.80;;;23.20;37.60;;;;;;4994435;28;20030;-62
2022/04/08 09:24:41;;;;;;;1.25;0.73;;;23.20;37.70;;;;;;4995865;28;20030;-63
2022/04/08 09:27:07;;;;;;;0.90;0.60;;;23.20;37.60;;;;;;4993455;28;20126;-62
2022/04/08 09:29:34;;;;;;;1.30;0.70;;;23.20;37.70;;;;;;4991355;28;20018;-59
2022/04/08 09:32:07;;;;;;;1.30;0.70;;;23.20;37.70;;;;;;4987596;28;20029;-62
2022/04/08 09:34:32;;;;;;;3.42;0.90;;;23.20;37.70;;;;;;4989754;28;20081;-61
2022/04/08 09:36:58;;;;;;;1.23;0.80;;;23.20;37.80;;;;;;4994051;28;20034;-61
2022/04/08 09:39:24;;;;;;;1.63;0.77;;;23.20;37.80;;;;;;4993125;28;20034;-61
2022/04/08 09:41:50;;;;;;;1.08;0.65;;;23.20;37.90;;;;;;4992521;28;20224;-62
2022/04/08 09:44:24;;;;;;;0.60;0.52;;;23.20;37.90;;;;;;4993779;28;20129;-63
2022/04/08 09:46:50;;;;;;;1.20;0.70;;;23.20;37.90;;;;;;4990276;28;20065;-61
2022/04/08 09:49:15;;;;;;;0.77;0.52;;;23.20;37.90;;;;;;4990616;28;20045;-63
2022/04/08 09:51:41;;;;;;;1.17;0.70;;;23.20;37.90;;;;;;4995569;28;20151;-63
2022/04/08 09:54:10;;;;;;;1.58;0.80;;;23.20;38.00;;;;;;4995453;28;20045;-64
2022/04/08 09:56:37;;;;;;;1.20;0.70;;;23.20;38.00;;;;;;4987293;28;20042;-64
2022/04/08 09:59:14;;;;;;;1.65;0.70;;;23.20;38.10;;;;;;4990334;28;20058;-62
2022/04/08 10:01:43;;;;;;;1.20;0.68;;;23.20;38.10;;;;;;4991067;28;20046;-64
2022/04/08 10:04:09;;;;;;;0.90;0.60;;;23.20;38.40;;;;;;4983001;28;20068;-63
2022/04/08 10:06:36;;;;;;;1.08;0.70;;;23.20;38.20;;;;;;4984658;28;20683;-64
2022/04/08 10:09:03;;;;;;;1.13;0.60;;;23.20;38.20;;;;;;4981410;28;20434;-62
2022/04/08 10:11:45;;;;;;;1.08;0.50;;;23.20;38.30;;;;;;5022290;28;20044;-63
2022/04/08 10:14:19;;;;;;;1.60;0.70;;;23.20;38.20;;;;;;4988847;28;20029;-63
2022/04/08 10:16:51;;;;;;;0.80;0.50;;;23.20;38.30;;;;;;4984931;28;20029;-64
2022/04/08 10:19:17;;;;;;;1.10;0.50;;;23.20;38.40;;;;;;4988567;28;20096;-63
2022/04/08 10:21:43;;;;;;;0.77;0.50;;;23.20;38.50;;;;;;4980436;28;20034;-62
2022/04/08 10:24:10;;;;;;;1.13;0.60;;;23.20;38.50;;;;;;4982154;28;20049;-64
2022/04/08 10:26:54;;;;;;;0.50;0.50;;;23.20;38.50;;;;;;4987453;28;20065;-63
2022/04/08 10:29:19;;;;;;;0.90;0.65;;;23.20;38.50;;;;;;4984496;28;20575;-63
2022/04/08 10:32:14;;;;;;;0.82;0.60;;;23.30;38.50;;;;;;4980143;28;20034;-62
2022/04/08 10:34:40;;;;;;;1.60;0.70;;;23.30;38.60;;;;;;4987170;28;20522;-63
2022/04/08 10:37:17;;;;;;;1.42;0.73;;;23.30;38.50;;;;;;4990617;28;20044;-64
2022/04/08 10:39:57;;;;;;;1.25;0.70;;;23.30;38.60;;;;;;4986491;28;20728;-63
2022/04/08 10:42:23;;;;;;;0.73;0.60;;;23.30;38.50;;;;;;4986977;28;20069;-64
2022/04/08 10:44:49;;;;;;;1.05;0.60;;;23.30;38.50;;;;;;4991824;28;20040;-63
2022/04/08 10:47:21;;;;;;;1.40;0.68;;;23.30;38.50;;;;;;4987742;28;20041;-61
2022/04/08 10:49:53;;;;;;;2.65;0.90;;;23.30;38.50;;;;;;4984734;28;20105;-63
2022/04/08 10:52:27;;;;;;;1.85;0.60;;;23.30;38.40;;;;;;4991537;28;20028;-63
2022/04/08 10:55:04;;;;;;;1.25;0.60;;;23.30;38.50;;;;;;4994277;28;20034;-61
2022/04/08 10:57:35;;;;;;;0.50;0.50;;;23.30;38.50;;;;;;4992514;28;20478;-60
2022/04/08 11:00:06;;;;;;;1.20;0.60;;;23.30;38.50;;;;;;4991467;28;20136;-63
2022/04/08 11:02:36;;;;;;;0.77;0.70;;;23.30;38.40;;;;;;4990528;28;20053;-63
2022/04/08 11:05:13;;;;;;;1.05;0.40;;;23.30;38.50;;;;;;4989427;28;20068;-63
2022/04/08 11:07:45;;;;;;;0.88;0.50;;;23.30;38.60;;;;;;4983973;28;20052;-63
2022/04/08 11:10:16;;;;;;;1.48;0.60;;;23.30;38.70;;;;;;4990402;28;20476;-64
2022/04/08 11:12:50;;;;;;;0.80;0.50;;;23.30;38.80;;;;;;4990073;28;20064;-64
2022/04/08 11:15:20;;;;;;;0.85;0.60;;;23.30;38.80;;;;;;4989066;28;20034;-61
2022/04/08 11:17:47;;;;;;;1.10;0.70;;;23.20;38.80;;;;;;4989757;28;20119;-62
2022/04/08 11:20:21;;;;;;;0.80;0.60;;;23.20;38.80;;;;;;4991688;28;20531;-62
2022/04/08 11:22:54;;;;;;;1.25;0.70;;;23.20;38.90;;;;;;4985579;28;20236;-62
2022/04/08 11:25:22;;;;;;;3.30;0.80;;;23.20;39.10;;;;;;4989935;28;20335;-64
2022/04/08 11:28:00;;;;;;;2.15;0.70;;;23.20;39.10;;;;;;4990117;28;20121;-63
2022/04/08 11:30:27;;;;;;;1.75;0.70;;;23.20;39.20;;;;;;4989414;28;20612;-63
2022/04/08 11:32:56;;;;;;;1.10;0.52;;;23.10;39.10;;;;;;4988285;28;20022;-61
2022/04/08 11:35:21;;;;;;;1.17;0.60;;;23.10;39.20;;;;;;5000626;28;20045;-65
2022/04/08 11:37:47;;;;;;;1.50;0.63;;;23.10;39.30;;;;;;4990889;28;20038;-63
2022/04/08 11:40:17;;;;;;;1.70;0.70;;;23.10;39.30;;;;;;4991097;28;20038;-61
2022/04/08 11:42:45;;;;;;;1.77;0.70;;;23.10;39.40;;;;;;4990308;28;20115;-63
2022/04/08 11:45:11;;;;;;;2.30;0.80;;;23.10;39.50;;;;;;4986287;28;21381;-63
2022/04/08 11:47:40;;;;;;;3.88;0.70;;;23.10;40.00;;;;;;4989460;28;20030;-62
2022/04/08 11:50:09;;;;;;;1.57;0.80;;;23.10;39.60;;;;;;4987872;28;20106;-63
2022/04/08 11:52:37;;;;;;;0.82;0.55;;;23.00;39.60;;;;;;4992654;28;20033;-64
2022/04/08 11:55:07;;;;;;;1.92;0.63;;;23.00;39.60;;;;;;4990705;28;20516;-60
2022/04/08 11:57:35;;;;;;;4.93;0.70;;;23.00;39.60;;;;;;4993338;28;20046;-62
2022/04/08 12:00:04;;;;;;;3.58;0.60;;;22.90;39.50;;;;;;4992442;28;20211;-63
2022/04/08 12:02:31;;;;;;;1.35;0.60;;;22.90;39.50;;;;;;4990516;28;20172;-62
2022/04/08 12:04:57;;;;;;;1.83;0.60;;;22.90;39.50;;;;;;4995870;28;20045;-62
2022/04/08 12:07:25;;;;;;;1.23;0.70;;;22.90;39.60;;;;;;4993626;28;20038;-63
2022/04/08 12:10:00;;;;;;;1.00;0.60;;;22.90;39.60;;;;;;4991339;28;20339;-63
2022/04/08 12:12:29;;;;;;;1.45;0.63;;;22.90;39.60;;;;;;4991999;28;20108;-64
2022/04/08 12:14:55;;;;;;;2.17;0.65;;;22.90;39.60;;;;;;4991433;28;20048;-63
2022/04/08 12:17:22;;;;;;;0.98;0.63;;;22.90;39.60;;;;;;4985631;28;20050;-62
2022/04/08 12:19:54;;;;;;;2.13;0.60;;;22.80;39.50;;;;;;4988547;28;20042;-62
2022/04/08 12:22:21;;;;;;;1.50;0.60;;;22.80;39.60;;;;;;4992853;28;20100;-62
2022/04/08 12:24:48;;;;;;;2.08;0.60;;;22.80;39.50;;;;;;5004600;28;20033;-60
2022/04/08 12:27:23;;;;;;;1.40;0.73;;;22.80;39.50;;;;;;4992988;28;20037;-61
2022/04/08 12:30:09;;;;;;;0.85;0.50;;;22.80;39.50;;;;;;4985716;28;20612;-61
2022/04/08 12:32:39;;;;;;;0.88;0.52;;;22.80;39.60;;;;;;4991341;28;20084;-64
2022/04/08 12:35:10;;;;;;;0.90;0.60;;;22.80;39.60;;;;;;4994508;28;20113;-63
2022/04/08 12:37:36;;;;;;;1.25;0.70;;;22.80;39.60;;;;;;4994243;28;20037;-63
2022/04/08 12:40:03;;;;;;;0.98;0.60;;;22.80;39.60;;;;;;4990442;28;20072;-64
2022/04/08 12:42:29;;;;;;;1.83;0.70;;;22.70;39.60;;;;;;4990520;28;20037;-63
2022/04/08 12:44:54;;;;;;;1.00;0.60;;;22.70;39.60;;;;;;4990822;28;20472;-62
2022/04/08 12:47:20;;;;;;;0.95;0.60;;;22.70;39.60;;;;;;4990155;28;20056;-63